createdAt,value
2023-02-06T00:10:58.614Z,1.1
2023-02-06T00:22:58.726Z,0.6
2023-02-06T00:34:58.744Z,0.6
2023-02-06T00:46:58.741Z,0.6
2023-02-06T00:58:58.618Z,0.6
2023-02-06T01:10:58.724Z,0.6
2023-02-06T01:22:58.616Z,0.6
2023-02-06T01:34:58.627Z,0.6
2023-02-06T01:46:58.615Z,0.6
2023-02-06T01:58:58.716Z,0.5
2023-02-06T02:10:58.610Z,0.5
2023-02-06T02:22:58.712Z,0.5
2023-02-06T02:34:58.632Z,0.5
2023-02-06T02:46:58.724Z,0.5
2023-02-06T02:58:58.746Z,0.6
2023-02-06T03:10:58.614Z,0.6
2023-02-06T03:22:58.679Z,0.4
2023-02-06T03:34:58.682Z,0.4
2023-02-06T03:46:58.735Z,0.4
2023-02-06T03:58:58.729Z,0.6
2023-02-06T04:10:58.619Z,0.6
2023-02-06T04:22:58.732Z,0.5
2023-02-06T04:34:58.744Z,0.5
2023-02-06T04:46:58.713Z,0.5
2023-02-06T04:58:58.701Z,0.5
2023-02-06T05:10:58.620Z,0.5
2023-02-06T05:22:58.619Z,0.5
2023-02-06T05:34:58.730Z,0.5
2023-02-06T05:46:58.684Z,0.5
2023-02-06T05:58:58.759Z,0.4
2023-02-06T06:10:59.263Z,0.4
2023-02-06T06:22:58.716Z,0.5
2023-02-06T06:34:58.697Z,0.5
2023-02-06T06:46:58.728Z,0.5
2023-02-06T06:58:58.738Z,0.5
2023-02-06T07:10:58.620Z,0.5
2023-02-06T07:22:58.636Z,0.6
2023-02-06T07:34:58.619Z,0.6
2023-02-06T07:46:58.686Z,0.6
2023-02-06T07:58:58.716Z,0.6
2023-02-06T08:10:58.622Z,0.6
2023-02-06T08:22:58.622Z,0.6
2023-02-06T08:34:58.618Z,0.6
2023-02-06T08:47:09.254Z,0.6
2023-02-06T08:58:58.620Z,1.1
2023-02-06T09:10:58.620Z,1.1
2023-02-06T09:22:58.617Z,1.0
2023-02-06T09:34:58.639Z,1.0
2023-02-06T09:46:58.676Z,1.0
2023-02-06T09:58:58.721Z,0.9
2023-02-06T10:10:58.636Z,0.9
2023-02-06T10:22:58.617Z,1.1
2023-02-06T10:34:58.711Z,1.1
2023-02-06T10:46:58.755Z,1.1
2023-02-06T10:58:58.622Z,1.1
2023-02-06T11:10:58.711Z,1.1
2023-02-06T11:22:58.702Z,1.4
2023-02-06T11:34:58.674Z,1.4
2023-02-06T11:46:58.627Z,1.4
2023-02-06T11:58:58.634Z,1.2
2023-02-06T12:10:58.626Z,1.2
2023-02-06T12:22:58.616Z,1.4
2023-02-06T12:34:59.448Z,1.4
2023-02-06T12:46:58.638Z,1.4
2023-02-06T12:58:58.710Z,1.3
2023-02-06T13:10:58.724Z,1.3
2023-02-06T13:22:58.735Z,1.4
2023-02-06T13:34:58.697Z,1.4
2023-02-06T13:46:58.711Z,1.4
2023-02-06T13:58:58.685Z,1.3
2023-02-06T14:10:58.619Z,1.3
2023-02-06T14:22:58.707Z,2.0
2023-02-06T14:34:58.739Z,2.0
2023-02-06T14:46:58.749Z,2.0
2023-02-06T14:58:58.690Z,1.4
2023-02-06T15:10:58.624Z,1.4
2023-02-06T15:23:11.625Z,1.7
2023-02-06T15:34:58.622Z,1.7
2023-02-06T15:46:58.734Z,1.7
2023-02-06T15:58:58.735Z,1.4
2023-02-06T16:10:58.723Z,1.4
2023-02-06T16:22:58.646Z,1.8
2023-02-06T16:34:58.615Z,1.8
2023-02-06T16:46:58.743Z,1.8
2023-02-06T16:58:58.719Z,1.4
2023-02-06T17:10:58.616Z,1.4
2023-02-06T17:22:58.709Z,1.1
2023-02-06T17:34:58.730Z,1.1
2023-02-06T17:46:58.721Z,1.1
2023-02-06T17:58:58.616Z,1.1
2023-02-06T18:10:58.624Z,1.1
2023-02-06T18:22:58.630Z,1.1
2023-02-06T18:34:59.869Z,1.1
2023-02-06T18:46:58.692Z,1.1
2023-02-06T18:58:58.622Z,1.1
2023-02-06T19:10:58.704Z,1.1
2023-02-06T19:22:58.718Z,1.8
2023-02-06T19:34:58.696Z,1.8
2023-02-06T19:46:58.622Z,1.8
2023-02-06T19:58:58.606Z,1.2
2023-02-06T20:10:58.623Z,1.2
2023-02-06T20:22:58.692Z,1.2
2023-02-06T20:34:58.735Z,1.2
2023-02-06T20:47:00.049Z,1.2
2023-02-06T20:58:58.700Z,1.2
2023-02-06T21:10:58.905Z,1.2
2023-02-06T21:22:58.641Z,1.5
2023-02-06T21:34:58.733Z,1.5
2023-02-06T21:46:58.731Z,1.5
2023-02-06T21:58:58.681Z,1.2
2023-02-06T22:10:58.613Z,1.2
2023-02-06T22:22:59.052Z,1.1
2023-02-06T22:34:58.700Z,1.1
2023-02-06T22:46:58.723Z,1.1
2023-02-06T22:58:58.617Z,1.2
2023-02-06T23:10:58.729Z,1.2
2023-02-06T23:22:58.733Z,1.3
2023-02-06T23:34:58.619Z,1.3
2023-02-06T23:46:58.637Z,1.3
2023-02-06T23:58:58.728Z,1.1
